Time;durP1;ratioP1;P1;durP2;ratioP2;P2;SDS_P1;SDS_P2;PMS_P1;PMS_P2;Temp;Humidity;BMP_temperature;BMP_pressure;BME280_temperature;BME280_humidity;BME280_pressure;Samples;Min_cycle;Max_cycle;Signal;HPM_P1;HPM_P2
2021/12/17 00:01:14;;;;;;;64.30;42.53;;;10.50;99.90;;;;;;5019407;28;20496;-70
2021/12/17 00:03:47;;;;;;;60.60;43.00;;;10.50;99.90;;;;;;5016514;28;20477;-71
2021/12/17 00:06:29;;;;;;;61.27;43.17;;;10.50;99.90;;;;;;5016463;28;21045;-69
2021/12/17 00:08:58;;;;;;;57.00;40.83;;;10.30;99.90;;;;;;5021755;28;20488;-73
2021/12/17 00:11:25;;;;;;;61.97;40.37;;;10.40;99.90;;;;;;5021456;28;20977;-70
2021/12/17 00:13:54;;;;;;;55.40;40.53;;;10.30;99.90;;;;;;5015219;28;20461;-72
2021/12/17 00:16:26;;;;;;;60.03;42.10;;;10.30;99.90;;;;;;5024439;28;20821;-70
2021/12/17 00:19:09;;;;;;;54.47;41.10;;;10.30;99.90;;;;;;5023915;28;20819;-71
2021/12/17 00:49:28;;;;;;;61.93;42.50;;;10.00;99.90;;;;;;5016530;28;20522;-68
2021/12/17 00:51:59;;;;;;;63.03;41.17;;;10.00;99.90;;;;;;5019100;28;20468;-71
2021/12/17 00:54:32;;;;;;;60.30;40.23;;;10.10;99.90;;;;;;5020748;28;20468;-68
2021/12/17 00:57:03;;;;;;;60.90;43.23;;;10.20;99.90;;;;;;5025621;28;20464;-68
2021/12/17 00:59:29;;;;;;;58.77;39.93;;;10.20;99.90;;;;;;5021921;28;20496;-69
2021/12/17 01:01:59;;;;;;;61.20;40.70;;;10.10;99.90;;;;;;5025787;28;20460;-69
2021/12/17 01:04:28;;;;;;;53.57;39.23;;;10.20;99.90;;;;;;5022169;28;20476;-72
2021/12/17 01:06:55;;;;;;;55.03;41.13;;;10.30;99.90;;;;;;5023974;28;20485;-69
2021/12/17 01:09:25;;;;;;;60.77;41.93;;;10.30;99.90;;;;;;5024261;28;21006;-70
2021/12/17 01:11:52;;;;;;;63.07;41.37;;;10.20;99.90;;;;;;5023830;28;20465;-69
2021/12/17 01:14:19;;;;;;;50.63;37.47;;;10.20;99.90;;;;;;5024997;28;20466;-69
2021/12/17 01:16:47;;;;;;;55.43;39.47;;;10.30;99.90;;;;;;5021185;28;20819;-69
2021/12/17 01:19:22;;;;;;;51.77;39.57;;;10.30;99.90;;;;;;5023265;28;20974;-68
2021/12/17 01:22:03;;;;;;;57.10;39.63;;;10.30;99.90;;;;;;5021907;28;20815;-68
2021/12/17 01:24:38;;;;;;;55.90;38.80;;;10.20;99.90;;;;;;5024516;28;20457;-69
2021/12/17 01:35:23;;;;;;;58.27;40.97;;;10.20;99.90;;;;;;5026125;28;21165;-69
2021/12/17 01:43:31;;;;;;;65.13;41.40;;;10.20;99.90;;;;;;5017942;28;20457;-71
2021/12/17 01:45:58;;;;;;;55.63;42.70;;;10.10;99.90;;;;;;5025297;28;20472;-69
2021/12/17 01:48:33;;;;;;;50.20;39.90;;;10.20;99.90;;;;;;5020728;28;20504;-69
2021/12/17 01:56:52;;;;;;;56.00;38.83;;;10.00;99.90;;;;;;5017857;28;20467;-69
2021/12/17 01:59:35;;;;;;;50.03;39.13;;;10.10;99.90;;;;;;5023157;28;20470;-69
2021/12/17 02:02:06;;;;;;;55.23;42.27;;;10.20;99.90;;;;;;5019930;28;20977;-69
2021/12/17 02:04:34;;;;;;;56.20;39.40;;;10.10;99.90;;;;;;5020425;28;20823;-69
2021/12/17 02:07:01;;;;;;;58.33;40.20;;;10.10;99.90;;;;;;5025605;28;20475;-69
2021/12/17 02:12:38;;;;;;;52.03;37.17;;;10.10;99.90;;;;;;4962312;28;20472;-69
2021/12/17 02:21:19;;;;;;;53.00;40.13;;;10.00;99.90;;;;;;4996387;28;20461;-72
2021/12/17 02:30:01;;;;;;;68.80;41.30;;;9.70;99.90;;;;;;5025349;28;21115;-73
2021/12/17 02:32:30;;;;;;;53.20;40.10;;;9.80;99.90;;;;;;5017869;28;20466;-69
2021/12/17 02:35:19;;;;;;;56.77;40.43;;;9.90;99.90;;;;;;5019917;28;20535;-68
2021/12/17 02:37:49;;;;;;;58.63;42.40;;;9.90;99.90;;;;;;5016503;28;20461;-69
2021/12/17 02:42:28;;;;;;;55.00;40.73;;;10.10;99.90;;;;;;5016603;28;20453;-72
2021/12/17 02:45:52;;;;;;;59.50;39.67;;;10.20;99.90;;;;;;5016738;28;20840;-69
2021/12/17 02:48:21;;;;;;;51.47;38.53;;;10.10;99.90;;;;;;5018547;28;20492;-69
2021/12/17 02:50:51;;;;;;;53.90;38.03;;;10.20;99.90;;;;;;5020639;28;20464;-71
2021/12/17 02:53:22;;;;;;;64.00;42.30;;;10.20;99.90;;;;;;5015519;28;20740;-71
2021/12/17 02:55:52;;;;;;;58.47;40.07;;;10.10;99.90;;;;;;5016394;28;20463;-68
2021/12/17 02:58:23;;;;;;;60.23;40.50;;;10.10;99.90;;;;;;5018381;28;20478;-70
2021/12/17 03:00:50;;;;;;;60.57;40.03;;;10.10;99.90;;;;;;5022261;28;20457;-72
2021/12/17 03:03:20;;;;;;;61.10;41.30;;;10.10;99.90;;;;;;5018242;28;20466;-70
2021/12/17 03:05:48;;;;;;;66.60;43.27;;;10.00;99.90;;;;;;5025482;28;20797;-69
2021/12/17 03:08:16;;;;;;;70.60;43.10;;;10.00;99.90;;;;;;5019066;28;20555;-69
2021/12/17 03:10:47;;;;;;;70.20;43.63;;;10.10;99.90;;;;;;5019910;28;20961;-69
2021/12/17 03:13:14;;;;;;;64.60;40.90;;;10.00;99.90;;;;;;5016298;28;20801;-69
2021/12/17 03:15:47;;;;;;;63.10;42.50;;;10.10;99.90;;;;;;5016802;28;20565;-69
2021/12/17 03:24:04;;;;;;;65.87;41.33;;;10.20;99.90;;;;;;4983540;28;20493;-68
2021/12/17 03:26:33;;;;;;;64.90;42.23;;;10.10;99.90;;;;;;4986335;28;20477;-70
2021/12/17 03:29:03;;;;;;;68.13;44.37;;;10.00;99.90;;;;;;4997341;28;21075;-69
2021/12/17 03:31:31;;;;;;;70.30;42.47;;;10.00;99.90;;;;;;5021395;28;20461;-69
2021/12/17 03:34:07;;;;;;;64.40;42.50;;;10.00;99.90;;;;;;5018772;28;20472;-71
2021/12/17 03:36:35;;;;;;;66.93;41.83;;;10.00;99.90;;;;;;5015398;28;20472;-69
2021/12/17 03:39:01;;;;;;;64.07;41.00;;;10.10;99.90;;;;;;5022277;28;21030;-69
2021/12/17 03:41:33;;;;;;;64.97;44.00;;;10.10;99.90;;;;;;5021651;28;20490;-69
2021/12/17 03:44:01;;;;;;;63.53;41.03;;;10.20;99.90;;;;;;5016358;28;20481;-69
2021/12/17 03:46:29;;;;;;;65.17;41.13;;;10.20;99.90;;;;;;5021666;28;20814;-67
2021/12/17 03:48:56;;;;;;;59.20;40.07;;;10.30;99.90;;;;;;5018206;28;20488;-70
2021/12/17 03:51:23;;;;;;;60.60;39.97;;;10.20;99.90;;;;;;5023504;28;20495;-69
2021/12/17 03:53:53;;;;;;;60.73;41.70;;;10.20;99.90;;;;;;5021447;28;20481;-69
2021/12/17 03:56:20;;;;;;;59.73;38.90;;;10.20;99.90;;;;;;5025130;28;20453;-70
2021/12/17 03:58:50;;;;;;;65.57;41.43;;;10.20;99.90;;;;;;5022344;28;20473;-71
2021/12/17 04:01:19;;;;;;;68.63;43.73;;;10.20;99.90;;;;;;5026099;28;20457;-68
2021/12/17 04:03:46;;;;;;;63.10;42.03;;;10.20;99.90;;;;;;5026139;28;20467;-71
2021/12/17 04:06:14;;;;;;;64.60;40.83;;;10.10;99.90;;;;;;5028962;28;20460;-69
2021/12/17 04:08:41;;;;;;;60.93;41.50;;;10.10;99.90;;;;;;5024904;28;20476;-69
2021/12/17 04:11:09;;;;;;;64.13;41.37;;;10.20;99.90;;;;;;5022603;28;20469;-68
2021/12/17 04:13:38;;;;;;;67.90;42.47;;;10.20;99.90;;;;;;5022261;28;20832;-70
2021/12/17 04:16:10;;;;;;;66.53;42.57;;;10.30;99.90;;;;;;5024410;28;20499;-72
2021/12/17 04:18:40;;;;;;;62.63;41.40;;;10.30;99.90;;;;;;5022158;28;20465;-73
2021/12/17 04:21:13;;;;;;;61.40;40.57;;;10.30;99.90;;;;;;5025392;28;20454;-69
2021/12/17 04:23:40;;;;;;;59.87;42.17;;;10.30;99.90;;;;;;5025492;28;20535;-69
2021/12/17 04:26:07;;;;;;;62.83;42.53;;;10.30;99.90;;;;;;5023873;28;20465;-72
2021/12/17 04:28:36;;;;;;;62.37;42.00;;;10.30;99.90;;;;;;5019898;28;21031;-70
2021/12/17 04:31:03;;;;;;;57.27;40.20;;;10.20;99.90;;;;;;5022150;28;20464;-69
2021/12/17 04:33:30;;;;;;;56.60;42.10;;;10.20;99.90;;;;;;5021893;28;20495;-69
2021/12/17 04:35:59;;;;;;;66.60;41.40;;;10.20;99.90;;;;;;5025724;28;20480;-70
2021/12/17 04:38:27;;;;;;;77.13;43.70;;;10.10;99.90;;;;;;5025463;28;21249;-69
2021/12/17 04:40:56;;;;;;;65.00;41.13;;;10.00;99.90;;;;;;5024543;28;21026;-69
2021/12/17 04:43:35;;;;;;;65.20;41.83;;;10.00;99.90;;;;;;5019310;28;20551;-68
2021/12/17 04:46:14;;;;;;;64.00;42.40;;;10.00;99.90;;;;;;5021481;28;20488;-69
2021/12/17 04:59:40;;;;;;;67.00;43.10;;;10.00;99.90;;;;;;5018450;28;20529;-73
2021/12/17 05:02:07;;;;;;;66.10;42.70;;;10.10;99.90;;;;;;5027720;28;20496;-69
2021/12/17 05:04:34;;;;;;;64.13;42.93;;;10.00;99.90;;;;;;5023435;28;20467;-69
2021/12/17 05:07:02;;;;;;;65.63;43.40;;;10.10;99.90;;;;;;5021822;28;20472;-69
2021/12/17 05:09:36;;;;;;;63.00;43.17;;;10.10;99.90;;;;;;5023938;28;20497;-69
2021/12/17 05:20:30;;;;;;;62.37;43.30;;;10.10;99.90;;;;;;5024100;28;20534;-70
2021/12/17 05:22:59;;;;;;;69.33;45.17;;;10.10;99.90;;;;;;5021356;28;20468;-69
2021/12/17 05:25:29;;;;;;;63.83;43.10;;;10.00;99.90;;;;;;5022982;28;20507;-71
2021/12/17 05:28:00;;;;;;;69.37;44.10;;;9.90;99.90;;;;;;5021280;28;20488;-73
2021/12/17 05:30:27;;;;;;;65.47;46.60;;;9.90;99.90;;;;;;5023210;28;20495;-70
2021/12/17 05:32:54;;;;;;;73.40;45.87;;;9.90;99.90;;;;;;5022774;28;20571;-69
2021/12/17 05:35:22;;;;;;;78.13;47.17;;;9.80;99.90;;;;;;5025317;28;20464;-69
2021/12/17 05:37:48;;;;;;;89.77;48.37;;;9.70;99.90;;;;;;5024445;28;20875;-70
2021/12/17 05:40:17;;;;;;;88.07;48.93;;;9.60;99.90;;;;;;5021820;28;20472;-68
2021/12/17 05:42:47;;;;;;;91.60;51.10;;;9.60;99.90;;;;;;5019965;28;20919;-67
2021/12/17 05:45:22;;;;;;;94.63;49.23;;;9.60;99.90;;;;;;5022710;28;20542;-72
2021/12/17 05:47:50;;;;;;;89.73;46.43;;;9.70;99.90;;;;;;5024175;28;20472;-69
2021/12/17 05:50:16;;;;;;;82.27;48.50;;;9.70;99.90;;;;;;5025101;28;20555;-69
2021/12/17 05:52:43;;;;;;;85.63;47.30;;;9.70;99.90;;;;;;5022533;28;20492;-69
2021/12/17 05:55:11;;;;;;;94.80;49.73;;;9.70;99.90;;;;;;5024012;28;20551;-70
2021/12/17 05:57:39;;;;;;;84.83;48.07;;;9.60;99.90;;;;;;5017352;28;20464;-71
2021/12/17 06:00:07;;;;;;;101.23;49.57;;;9.70;99.90;;;;;;5023540;28;20538;-69
2021/12/17 06:02:34;;;;;;;93.77;49.37;;;9.60;99.90;;;;;;5024866;28;20543;-69
2021/12/17 06:05:01;;;;;;;84.80;49.60;;;9.60;99.90;;;;;;5021442;28;20683;-68
2021/12/17 06:07:29;;;;;;;100.37;48.47;;;9.60;99.90;;;;;;5018765;28;20473;-68
2021/12/17 06:09:59;;;;;;;89.67;49.90;;;9.70;99.90;;;;;;5018882;28;20489;-68
2021/12/17 06:12:26;;;;;;;92.37;51.20;;;9.70;99.90;;;;;;5020094;28;20993;-68
2021/12/17 06:14:54;;;;;;;92.97;50.93;;;9.70;99.90;;;;;;5025055;28;20464;-68
2021/12/17 06:17:21;;;;;;;93.30;49.80;;;9.70;99.90;;;;;;5021990;28;20483;-68
2021/12/17 06:19:48;;;;;;;82.70;48.90;;;9.70;99.90;;;;;;5018717;28;20463;-68
2021/12/17 06:22:16;;;;;;;92.03;50.13;;;9.70;99.90;;;;;;5021751;28;20488;-67
2021/12/17 06:24:44;;;;;;;86.27;49.80;;;9.70;99.90;;;;;;5021309;28;20460;-68
2021/12/17 06:27:11;;;;;;;89.50;49.00;;;9.70;99.90;;;;;;5015010;28;20465;-67
2021/12/17 06:29:38;;;;;;;97.07;50.60;;;9.70;99.90;;;;;;5022289;28;20504;-70
2021/12/17 06:32:08;;;;;;;90.33;48.67;;;9.60;99.90;;;;;;5019646;28;20469;-67
2021/12/17 06:34:35;;;;;;;78.80;47.40;;;9.50;99.90;;;;;;5021257;28;20464;-68
2021/12/17 06:37:03;;;;;;;82.37;45.43;;;9.50;99.90;;;;;;5021920;28;20475;-67
2021/12/17 06:39:30;;;;;;;77.80;47.03;;;9.50;99.90;;;;;;5015896;28;21239;-72
2021/12/17 06:41:57;;;;;;;87.50;47.40;;;9.50;99.90;;;;;;5024588;28;20459;-70
2021/12/17 06:44:26;;;;;;;96.83;48.20;;;9.40;99.90;;;;;;5020152;28;20491;-68
2021/12/17 06:46:59;;;;;;;84.10;47.47;;;9.40;99.90;;;;;;5021057;28;21143;-69
2021/12/17 06:49:29;;;;;;;81.13;46.17;;;9.40;99.90;;;;;;5022585;28;20480;-67
2021/12/17 06:54:55;;;;;;;78.87;46.73;;;9.30;99.90;;;;;;5016205;28;20464;-67
2021/12/17 06:58:09;;;;;;;86.93;45.63;;;9.40;99.90;;;;;;5020323;28;20479;-70
2021/12/17 07:00:48;;;;;;;81.37;48.20;;;9.40;99.90;;;;;;5021053;28;20464;-68
2021/12/17 07:06:04;;;;;;;84.33;50.93;;;9.30;99.90;;;;;;5022854;28;20835;-68
2021/12/17 07:11:36;;;;;;;83.20;50.87;;;9.30;99.90;;;;;;5025427;28;20999;-67
2021/12/17 07:17:18;;;;;;;98.67;52.70;;;9.30;99.90;;;;;;5022131;28;20950;-68
2021/12/17 07:22:44;;;;;;;89.67;51.73;;;9.30;99.90;;;;;;5020346;28;20675;-67
2021/12/17 07:28:11;;;;;;;96.60;54.37;;;9.20;99.90;;;;;;5025781;28;20460;-67
2021/12/17 07:33:33;;;;;;;86.60;51.33;;;9.30;99.90;;;;;;5027479;28;20513;-68
2021/12/17 07:36:08;;;;;;;81.83;49.03;;;9.20;99.90;;;;;;5025898;28;20468;-71
2021/12/17 07:38:38;;;;;;;73.37;46.57;;;9.20;99.90;;;;;;5022152;28;20468;-68
2021/12/17 07:41:05;;;;;;;77.80;49.13;;;9.10;99.90;;;;;;5023032;28;20457;-70
2021/12/17 07:43:37;;;;;;;83.27;50.47;;;9.10;99.90;;;;;;5026019;28;20476;-68
2021/12/17 07:46:07;;;;;;;71.27;45.57;;;9.00;99.90;;;;;;5016874;28;20485;-68
2021/12/17 07:48:34;;;;;;;66.80;47.40;;;9.00;99.90;;;;;;5025027;28;20461;-71
2021/12/17 07:51:04;;;;;;;75.83;49.80;;;8.90;99.90;;;;;;5023672;28;20512;-68
2021/12/17 07:53:31;;;;;;;70.63;50.03;;;9.00;99.90;;;;;;5023327;28;20495;-67
2021/12/17 07:56:02;;;;;;;80.23;51.60;;;8.90;99.90;;;;;;5023973;28;20575;-72
2021/12/17 07:58:29;;;;;;;83.77;48.90;;;8.90;99.90;;;;;;5024739;28;20464;-70
2021/12/17 08:00:56;;;;;;;76.67;46.90;;;8.90;99.90;;;;;;5030568;28;20470;-70
2021/12/17 08:03:24;;;;;;;85.97;49.87;;;8.80;99.90;;;;;;5024986;28;20484;-70
2021/12/17 08:05:51;;;;;;;86.47;50.80;;;8.80;99.90;;;;;;5022083;28;20467;-71
2021/12/17 08:08:18;;;;;;;90.73;49.63;;;8.80;99.90;;;;;;5015179;28;20469;-70
2021/12/17 08:10:47;;;;;;;81.63;50.03;;;8.80;99.90;;;;;;5019520;28;20500;-70
2021/12/17 08:13:20;;;;;;;75.13;49.80;;;8.80;99.90;;;;;;5021310;28;20472;-70
2021/12/17 08:27:11;;;;;;;78.60;48.03;;;8.80;99.90;;;;;;4956928;28;20470;-71
2021/12/17 08:29:53;;;;;;;78.03;50.83;;;8.90;99.90;;;;;;5002291;28;20460;-68
2021/12/17 08:32:20;;;;;;;71.60;50.57;;;8.90;99.90;;;;;;5021003;28;20475;-67
2021/12/17 08:34:47;;;;;;;85.67;50.07;;;9.00;99.90;;;;;;5012701;28;20465;-71
2021/12/17 08:37:14;;;;;;;83.40;54.57;;;9.00;99.90;;;;;;5016947;28;20460;-68
2021/12/17 08:39:41;;;;;;;83.43;51.13;;;9.00;99.90;;;;;;5019813;28;20460;-67
2021/12/17 08:42:08;;;;;;;85.17;51.73;;;9.10;99.90;;;;;;5016100;28;20511;-71
2021/12/17 08:44:35;;;;;;;79.30;50.60;;;9.10;99.90;;;;;;5023931;28;20567;-68
2021/12/17 08:47:05;;;;;;;84.10;50.00;;;9.00;99.90;;;;;;5021748;28;21216;-67
2021/12/17 08:49:32;;;;;;;89.33;51.10;;;9.10;99.90;;;;;;5017890;28;20951;-68
2021/12/17 08:51:59;;;;;;;89.77;51.57;;;9.00;99.90;;;;;;5020162;28;20994;-67
2021/12/17 08:54:26;;;;;;;81.03;50.40;;;9.10;99.90;;;;;;5015804;28;20462;-67
2021/12/17 08:56:53;;;;;;;83.33;50.03;;;9.10;99.90;;;;;;5023178;28;20467;-70
2021/12/17 08:59:21;;;;;;;88.87;52.07;;;9.10;99.90;;;;;;5022580;28;20958;-67
2021/12/17 09:01:48;;;;;;;94.90;51.80;;;9.10;99.90;;;;;;5019057;28;20469;-67
2021/12/17 09:04:17;;;;;;;94.43;50.57;;;9.10;99.90;;;;;;5018591;28;20468;-68
2021/12/17 09:06:44;;;;;;;89.80;52.60;;;9.10;99.90;;;;;;5019381;28;20834;-68
2021/12/17 09:09:17;;;;;;;97.07;53.80;;;9.10;99.90;;;;;;5022032;28;20975;-68
2021/12/17 09:11:44;;;;;;;79.87;51.30;;;9.10;99.90;;;;;;5021623;28;20493;-69
2021/12/17 09:14:11;;;;;;;98.00;54.37;;;9.10;99.90;;;;;;5023953;28;20998;-68
2021/12/17 09:16:38;;;;;;;98.33;52.60;;;9.10;99.90;;;;;;5023869;28;20465;-68
2021/12/17 09:19:07;;;;;;;115.60;53.53;;;9.20;99.90;;;;;;5012129;28;20955;-69
2021/12/17 09:21:35;;;;;;;101.00;51.33;;;9.10;99.90;;;;;;5018849;28;20461;-68
2021/12/17 09:24:02;;;;;;;95.03;52.20;;;9.20;99.90;;;;;;5015393;28;20519;-68
2021/12/17 09:26:32;;;;;;;102.03;50.43;;;9.10;99.90;;;;;;5021057;28;20468;-68
2021/12/17 09:29:00;;;;;;;109.53;52.20;;;9.20;99.90;;;;;;5021002;28;20469;-70
2021/12/17 09:31:27;;;;;;;104.93;51.60;;;9.20;99.90;;;;;;5024733;28;20503;-70
2021/12/17 09:33:55;;;;;;;103.77;51.40;;;9.10;99.90;;;;;;5016700;28;20472;-69
2021/12/17 09:36:22;;;;;;;93.67;52.40;;;9.20;99.90;;;;;;5019840;28;20896;-68
2021/12/17 09:38:52;;;;;;;105.53;51.10;;;9.20;99.90;;;;;;5014774;28;20620;-69
2021/12/17 09:41:20;;;;;;;114.10;55.40;;;9.10;99.90;;;;;;5012496;28;20926;-70
2021/12/17 09:43:47;;;;;;;110.47;50.70;;;9.10;99.90;;;;;;5023319;28;20468;-67
2021/12/17 09:46:14;;;;;;;102.80;50.07;;;9.10;99.90;;;;;;5019529;28;20461;-68
2021/12/17 09:48:41;;;;;;;112.77;52.70;;;9.30;99.90;;;;;;5017243;28;20984;-68
2021/12/17 09:51:09;;;;;;;95.83;50.17;;;9.30;99.90;;;;;;5018547;28;20496;-72
2021/12/17 09:53:36;;;;;;;104.13;50.13;;;9.10;99.90;;;;;;5017878;28;20493;-71
2021/12/17 09:56:05;;;;;;;93.20;47.43;;;9.20;99.90;;;;;;5022331;28;20465;-69
2021/12/17 09:58:32;;;;;;;112.43;52.13;;;9.20;99.90;;;;;;5024139;28;20951;-70
2021/12/17 10:00:59;;;;;;;88.63;51.93;;;9.30;99.90;;;;;;5019179;28;20979;-68
2021/12/17 10:03:27;;;;;;;100.50;52.73;;;9.30;99.90;;;;;;5017212;28;20548;-68
2021/12/17 10:05:55;;;;;;;107.10;51.93;;;9.40;99.90;;;;;;5020053;28;20472;-67
2021/12/17 10:08:23;;;;;;;100.83;49.17;;;9.40;99.90;;;;;;5022471;28;20465;-69
2021/12/17 10:10:56;;;;;;;118.57;54.30;;;9.30;99.90;;;;;;5020435;28;20507;-70
2021/12/17 10:13:26;;;;;;;108.23;52.43;;;9.30;99.90;;;;;;5022539;28;20469;-68
2021/12/17 10:15:55;;;;;;;92.40;49.40;;;9.40;99.90;;;;;;5019538;28;20475;-69
2021/12/17 10:18:32;;;;;;;94.63;48.47;;;9.40;99.90;;;;;;5017394;28;20523;-68
2021/12/17 10:21:01;;;;;;;118.80;54.27;;;9.50;99.90;;;;;;5017112;28;20473;-69
2021/12/17 10:23:31;;;;;;;109.47;52.43;;;9.40;99.90;;;;;;5012323;28;20463;-68
2021/12/17 10:25:58;;;;;;;107.30;53.27;;;9.40;99.90;;;;;;5026011;28;20472;-69
2021/12/17 10:28:27;;;;;;;109.00;50.90;;;9.40;99.90;;;;;;5016376;28;20457;-68
2021/12/17 10:30:55;;;;;;;108.50;51.13;;;9.50;99.90;;;;;;5020312;28;20502;-72
2021/12/17 10:33:25;;;;;;;129.50;52.30;;;9.60;99.90;;;;;;5020775;28;20492;-69
2021/12/17 10:35:53;;;;;;;117.00;55.00;;;9.60;99.90;;;;;;5019764;28;20540;-68
2021/12/17 10:38:24;;;;;;;109.63;51.40;;;9.70;99.90;;;;;;5022506;28;20461;-68
2021/12/17 10:40:57;;;;;;;90.57;48.53;;;9.70;99.90;;;;;;5018260;28;20479;-68
2021/12/17 10:43:31;;;;;;;112.93;50.63;;;9.70;99.90;;;;;;5021733;28;20487;-70
2021/12/17 10:46:04;;;;;;;98.20;50.57;;;9.70;99.90;;;;;;5016732;28;20491;-69
2021/12/17 10:48:35;;;;;;;139.60;52.27;;;9.70;99.90;;;;;;5007775;28;20462;-69
2021/12/17 10:51:16;;;;;;;137.50;55.10;;;9.70;99.90;;;;;;5021413;28;20567;-68
2021/12/17 10:53:51;;;;;;;127.70;53.17;;;9.80;99.90;;;;;;5017925;28;20567;-71
2021/12/17 10:56:18;;;;;;;100.07;54.20;;;9.80;99.90;;;;;;5025489;28;20471;-69
2021/12/17 10:58:58;;;;;;;100.27;48.33;;;9.90;99.90;;;;;;5016441;28;20857;-68
2021/12/17 11:01:31;;;;;;;90.60;48.67;;;9.90;99.90;;;;;;5017572;28;20840;-70
2021/12/17 11:04:10;;;;;;;91.13;49.80;;;9.80;99.90;;;;;;5019307;28;20468;-68
2021/12/17 11:06:45;;;;;;;105.27;48.50;;;9.70;99.90;;;;;;5013045;28;21102;-68
2021/12/17 11:09:13;;;;;;;99.83;47.93;;;9.70;99.90;;;;;;5017089;28;20476;-69
2021/12/17 11:11:42;;;;;;;103.10;50.93;;;9.60;99.90;;;;;;5023046;28;20492;-69
2021/12/17 11:14:11;;;;;;;106.43;47.23;;;9.60;99.90;;;;;;5022228;28;20461;-68
2021/12/17 11:16:39;;;;;;;111.20;48.20;;;9.70;99.90;;;;;;5020997;28;20544;-68
2021/12/17 11:19:07;;;;;;;93.90;48.03;;;9.70;99.90;;;;;;5020145;28;20520;-69
2021/12/17 11:21:35;;;;;;;123.83;49.33;;;9.80;99.90;;;;;;5018655;28;20963;-68
2021/12/17 11:24:03;;;;;;;108.83;48.20;;;9.70;99.90;;;;;;5014603;28;20949;-71
2021/12/17 11:26:30;;;;;;;111.13;48.90;;;9.70;99.90;;;;;;5023640;28;20538;-71
2021/12/17 11:29:03;;;;;;;86.90;48.27;;;9.70;99.90;;;;;;5019034;28;20921;-70
2021/12/17 11:31:32;;;;;;;105.20;44.70;;;9.60;99.90;;;;;;5017122;28;20495;-69
2021/12/17 11:34:01;;;;;;;87.47;43.57;;;9.60;99.90;;;;;;5018455;28;20526;-68
2021/12/17 11:36:29;;;;;;;90.30;45.07;;;9.60;99.90;;;;;;5015463;28;20615;-68
2021/12/17 11:39:03;;;;;;;112.60;46.70;;;9.60;99.90;;;;;;5017922;28;21170;-71
2021/12/17 11:41:41;;;;;;;98.37;44.97;;;9.60;99.90;;;;;;5020668;28;20468;-68
2021/12/17 11:44:09;;;;;;;105.93;46.00;;;9.70;99.90;;;;;;5020040;28;20484;-70
2021/12/17 11:46:38;;;;;;;84.33;42.47;;;9.80;99.90;;;;;;5023140;28;20472;-69
2021/12/17 11:49:08;;;;;;;96.20;45.00;;;9.80;99.90;;;;;;5019398;28;20810;-69
2021/12/17 11:51:36;;;;;;;92.33;43.90;;;9.80;99.90;;;;;;5016422;28;20492;-71
2021/12/17 11:54:07;;;;;;;77.90;41.60;;;9.80;99.90;;;;;;5019881;28;20489;-68
2021/12/17 11:56:41;;;;;;;79.97;44.00;;;9.80;99.90;;;;;;5019113;28;20472;-68
2021/12/17 11:59:10;;;;;;;84.83;44.40;;;9.70;99.90;;;;;;5021803;28;20456;-68
2021/12/17 12:01:55;;;;;;;89.70;42.87;;;9.80;99.90;;;;;;5023745;28;20472;-68
2021/12/17 12:04:56;;;;;;;81.07;43.30;;;9.70;99.90;;;;;;5016895;28;20467;-71
2021/12/17 12:07:37;;;;;;;80.40;42.60;;;9.70;99.90;;;;;;4956937;28;20469;-69
2021/12/17 12:10:08;;;;;;;91.10;43.27;;;9.70;99.90;;;;;;4955130;28;20468;-71
2021/12/17 12:12:57;;;;;;;84.17;42.50;;;9.70;99.90;;;;;;4989906;28;20496;-69
2021/12/17 12:15:40;;;;;;;95.43;42.90;;;9.70;99.90;;;;;;5021931;28;20464;-68
2021/12/17 12:18:15;;;;;;;98.67;43.00;;;9.70;99.90;;;;;;5024130;28;20464;-70
2021/12/17 12:21:00;;;;;;;93.50;45.70;;;9.70;99.90;;;;;;5023185;28;20898;-69
2021/12/17 12:23:43;;;;;;;91.57;43.10;;;9.60;99.90;;;;;;5021605;28;20467;-68
2021/12/17 12:26:25;;;;;;;95.77;43.63;;;9.70;99.90;;;;;;5021821;28;20460;-69
2021/12/17 12:28:58;;;;;;;71.00;42.53;;;9.60;99.90;;;;;;5016574;28;20768;-68
2021/12/17 12:31:56;;;;;;;77.33;41.80;;;9.70;99.90;;;;;;5022770;28;20832;-72
2021/12/17 12:34:38;;;;;;;73.37;42.37;;;9.70;99.90;;;;;;5016270;28;20521;-69
2021/12/17 12:37:26;;;;;;;84.60;44.70;;;9.80;99.90;;;;;;5018863;28;20465;-71
2021/12/17 12:40:21;;;;;;;89.87;44.23;;;9.80;99.90;;;;;;5018900;28;20454;-68
2021/12/17 12:42:51;;;;;;;76.90;43.43;;;9.70;99.90;;;;;;5024581;28;20473;-69
2021/12/17 12:45:18;;;;;;;84.97;41.43;;;9.70;99.90;;;;;;5023475;28;20496;-69
2021/12/17 12:47:51;;;;;;;92.23;45.60;;;9.70;99.90;;;;;;5025749;28;20465;-69
2021/12/17 12:50:23;;;;;;;94.83;42.83;;;9.80;99.90;;;;;;5020239;28;20464;-69
2021/12/17 12:52:53;;;;;;;77.07;40.40;;;9.80;99.90;;;;;;5015899;28;20496;-69
2021/12/17 12:55:22;;;;;;;95.10;40.67;;;9.80;99.90;;;;;;5023190;28;20461;-68
2021/12/17 12:57:51;;;;;;;97.73;42.60;;;9.80;99.90;;;;;;5015054;28;20529;-73
2021/12/17 13:00:21;;;;;;;118.07;47.57;;;9.80;99.90;;;;;;5019531;28;20464;-68
2021/12/17 13:02:54;;;;;;;95.47;42.63;;;9.80;99.90;;;;;;5022482;28;20779;-69
2021/12/17 13:05:25;;;;;;;79.80;40.53;;;9.70;99.90;;;;;;5029168;28;20844;-73
2021/12/17 13:07:54;;;;;;;93.50;43.93;;;9.70;99.90;;;;;;5023978;28;20466;-68
2021/12/17 13:10:24;;;;;;;94.07;43.23;;;9.80;99.90;;;;;;5020913;28;20471;-70
2021/12/17 13:12:55;;;;;;;93.73;43.63;;;9.80;99.90;;;;;;5020705;28;20489;-69
2021/12/17 13:15:42;;;;;;;94.77;44.77;;;9.80;99.90;;;;;;5019359;28;20472;-71
2021/12/17 13:21:19;;;;;;;97.53;43.80;;;9.70;99.90;;;;;;5026617;28;20977;-72
2021/12/17 13:23:50;;;;;;;102.13;45.17;;;9.80;99.90;;;;;;5026722;28;20457;-68
2021/12/17 13:26:20;;;;;;;94.93;44.20;;;9.90;99.90;;;;;;5019297;28;20461;-70
2021/12/17 13:29:04;;;;;;;87.60;47.00;;;9.90;99.90;;;;;;5020254;28;20461;-71
2021/12/17 13:31:38;;;;;;;110.83;47.30;;;9.80;99.90;;;;;;5021582;28;20493;-70
2021/12/17 13:34:10;;;;;;;95.70;46.87;;;9.80;99.90;;;;;;5023156;28;20464;-68
2021/12/17 13:36:50;;;;;;;97.43;46.97;;;9.70;99.90;;;;;;5023395;28;20469;-68
2021/12/17 13:39:17;;;;;;;107.30;48.60;;;9.60;99.90;;;;;;5021760;28;20472;-67
2021/12/17 13:41:46;;;;;;;94.77;47.87;;;9.60;99.90;;;;;;5019915;28;20481;-68
2021/12/17 13:44:37;;;;;;;115.17;48.23;;;9.50;99.90;;;;;;5018791;28;20821;-68
2021/12/17 13:47:13;;;;;;;108.17;50.40;;;9.40;99.90;;;;;;5024129;28;20472;-70
2021/12/17 13:49:43;;;;;;;94.37;46.20;;;9.50;99.90;;;;;;5020628;28;20838;-71
2021/12/17 13:52:12;;;;;;;98.80;51.63;;;9.50;99.90;;;;;;5018570;28;20494;-70
2021/12/17 13:54:39;;;;;;;98.63;48.80;;;9.60;99.90;;;;;;5021419;28;20523;-68
2021/12/17 13:57:11;;;;;;;86.37;45.40;;;9.70;99.90;;;;;;5025095;28;20955;-71
2021/12/17 13:59:38;;;;;;;100.37;54.30;;;9.70;99.90;;;;;;5021162;28;20502;-69
2021/12/17 14:02:11;;;;;;;93.03;48.13;;;9.70;99.90;;;;;;5021735;28;20471;-69
2021/12/17 14:04:38;;;;;;;103.30;52.57;;;9.70;99.90;;;;;;5014990;28;20956;-68
2021/12/17 14:07:07;;;;;;;93.63;47.20;;;9.80;99.90;;;;;;5018702;28;20461;-68
2021/12/17 14:09:35;;;;;;;94.53;49.47;;;9.80;99.90;;;;;;5023813;28;20464;-70
2021/12/17 14:12:27;;;;;;;82.23;45.97;;;9.90;99.90;;;;;;5024474;28;20582;-68
2021/12/17 14:14:59;;;;;;;80.77;44.17;;;10.00;99.90;;;;;;5019251;28;20496;-73
2021/12/17 14:17:33;;;;;;;85.07;45.47;;;10.00;99.90;;;;;;5027295;28;20960;-73
2021/12/17 14:20:07;;;;;;;83.03;44.87;;;10.00;99.90;;;;;;5028104;28;20947;-68
2021/12/17 14:22:36;;;;;;;74.97;46.37;;;10.00;99.90;;;;;;5021120;28;20465;-68
2021/12/17 14:25:29;;;;;;;83.97;48.73;;;10.00;99.90;;;;;;5018474;28;20460;-68
2021/12/17 14:27:58;;;;;;;71.03;44.33;;;10.10;99.90;;;;;;5019764;28;20462;-68
2021/12/17 14:30:26;;;;;;;62.23;42.20;;;9.90;99.90;;;;;;5021097;28;21319;-69
2021/12/17 14:32:53;;;;;;;59.60;39.30;;;9.90;99.90;;;;;;5021631;28;20484;-68
2021/12/17 14:35:40;;;;;;;62.90;39.27;;;10.00;99.90;;;;;;5021068;28;20471;-70
2021/12/17 14:38:07;;;;;;;57.40;39.17;;;10.00;99.90;;;;;;5019929;28;20460;-69
2021/12/17 14:40:42;;;;;;;49.50;38.00;;;9.90;99.90;;;;;;5020735;28;20497;-71
2021/12/17 14:43:23;;;;;;;51.40;37.77;;;10.00;99.90;;;;;;5017709;28;20889;-71
2021/12/17 14:46:00;;;;;;;50.83;35.80;;;9.90;99.90;;;;;;5018867;28;20493;-68
2021/12/17 14:48:36;;;;;;;55.73;38.90;;;9.90;99.90;;;;;;5020689;28;20477;-69
2021/12/17 15:02:46;;;;;;;63.43;39.07;;;9.70;99.90;;;;;;5025734;28;20453;-71
2021/12/17 15:05:14;;;;;;;51.77;37.10;;;9.70;99.90;;;;;;5019550;28;20477;-69
2021/12/17 15:07:41;;;;;;;51.07;37.03;;;9.80;99.90;;;;;;5022434;28;20468;-68
2021/12/17 15:10:11;;;;;;;50.37;35.97;;;9.80;99.90;;;;;;5022837;28;20465;-68